Blackton, Arkansas
Current Conditions -  °F | °C
As of 12:55 PM on Sunday 23 Nov 2014 (Local Time) from KSGT Reporting Station
Overcast Overcast  
Wind Chill: 59°   Ceiling: 5000
Heat Index: 59°   Visibility: 8mi
Dew Point: 57°   Wind: 9mph
Humidity: 94%   Direction: 120°ESE
Pressure: 29.4"   Gusts: NA
Location:  34.5919°N, 91.1409°W
Report Text: KSGT 231855Z AUTO 12008KT 8SM OVC050 15/14 A2940 RMK AO1 P0027
Loading
Personal Weather Stations






























Interactive Weather Map New forecast layout! Learn more

10-Day Weather Forecast

Advertisements
Track Severe Weather on mobile